Time;durP1;ratioP1;P1;durP2;ratioP2;P2;SDS_P1;SDS_P2;PMS_P1;PMS_P2;Temp;Humidity;BMP_temperature;BMP_pressure;BME280_temperature;BME280_humidity;BME280_pressure;Samples;Min_cycle;Max_cycle;Signal;HPM_P1;HPM_P2
2023/06/10 00:01:09;;;;;;;10.00;6.20;;;;;;;15.20;93.08;101077.44;4834783;29;20506;-65
2023/06/10 00:03:41;;;;;;;9.73;5.63;;;;;;;15.16;93.29;101062.59;4844341;29;20414;-64
2023/06/10 00:06:10;;;;;;;6.97;5.60;;;;;;;15.12;93.81;101066.84;4849272;29;20800;-65
2023/06/10 00:08:39;;;;;;;8.00;5.53;;;;;;;15.05;94.23;101070.72;4845865;29;20441;-64
2023/06/10 00:11:08;;;;;;;10.37;4.93;;;;;;;15.13;93.92;101079.41;4835093;29;20472;-63
2023/06/10 00:13:38;;;;;;;13.53;6.23;;;;;;;15.07;94.03;101066.69;4841638;29;20440;-63
2023/06/10 00:16:07;;;;;;;5.70;5.03;;;;;;;15.13;94.00;101067.69;4842033;29;20895;-64
2023/06/10 00:18:38;;;;;;;12.47;5.20;;;;;;;15.27;93.43;101071.06;4841422;29;20502;-69
2023/06/10 00:21:07;;;;;;;5.27;4.77;;;;;;;15.25;92.92;101075.94;4842240;29;20973;-67
2023/06/10 00:23:38;;;;;;;6.63;5.37;;;;;;;15.10;93.89;101070.88;4845569;29;20441;-63
2023/06/10 00:26:07;;;;;;;10.47;7.20;;;;;;;15.17;93.34;101061.53;4841434;29;20437;-64
2023/06/10 00:28:36;;;;;;;7.57;5.07;;;;;;;15.01;94.38;101064.88;4841954;29;20779;-65
2023/06/10 00:31:05;;;;;;;10.47;5.87;;;;;;;14.97;94.66;101066.38;4843271;29;20497;-65
2023/06/10 00:33:35;;;;;;;6.50;5.60;;;;;;;14.94;94.85;101077.75;4845785;29;20476;-65
2023/06/10 00:36:06;;;;;;;14.53;6.50;;;;;;;14.85;95.97;101054.59;4849424;29;20564;-66
2023/06/10 00:38:35;;;;;;;10.90;5.00;;;;;;;14.90;95.43;101051.19;4852878;29;20493;-64
2023/06/10 00:41:04;;;;;;;8.60;5.40;;;;;;;14.85;95.71;101059.19;4848036;29;20607;-64
2023/06/10 00:43:33;;;;;;;9.00;4.63;;;;;;;14.77;96.32;101058.41;4846586;29;20456;-66
2023/06/10 00:46:03;;;;;;;7.37;4.43;;;;;;;14.69;96.84;101066.06;4845912;29;20496;-63
2023/06/10 00:48:33;;;;;;;8.60;6.17;;;;;;;14.67;97.25;101062.72;4845559;29;20769;-66
2023/06/10 00:51:03;;;;;;;15.27;6.13;;;;;;;14.57;97.70;101062.44;4846006;29;20441;-65
2023/06/10 00:53:33;;;;;;;10.73;5.63;;;;;;;14.62;97.42;101065.31;4845960;29;20412;-65
2023/06/10 00:56:02;;;;;;;11.87;5.63;;;;;;;14.58;97.93;101064.06;4845518;29;21020;-66
2023/06/10 00:58:32;;;;;;;10.43;6.03;;;;;;;14.59;98.02;101058.41;4849318;29;20453;-66
2023/06/10 01:01:01;;;;;;;10.53;6.97;;;;;;;14.59;97.76;101060.28;4862221;29;20873;-65
2023/06/10 01:03:32;;;;;;;15.13;6.13;;;;;;;14.50;97.97;101061.63;4851536;29;20419;-65
2023/06/10 01:06:10;;;;;;;12.07;6.37;;;;;;;14.51;98.68;101068.75;4864077;29;20469;-66
2023/06/10 01:08:51;;;;;;;9.40;5.57;;;;;;;14.42;99.28;101070.94;4847987;29;20449;-64
2023/06/10 01:11:26;;;;;;;14.77;6.90;;;;;;;14.41;99.43;101072.00;4844621;29;20945;-63
2023/06/10 01:13:59;;;;;;;8.53;5.30;;;;;;;14.40;99.57;101066.75;4843490;29;20437;-64
2023/06/10 01:16:28;;;;;;;9.23;5.50;;;;;;;14.37;99.36;101070.78;4852034;29;20495;-66
2023/06/10 01:18:58;;;;;;;8.23;5.43;;;;;;;14.49;98.92;101077.13;4852403;29;20437;-66
2023/06/10 01:21:28;;;;;;;14.93;6.40;;;;;;;14.50;98.83;101077.97;4843372;29;20464;-66
2023/06/10 01:23:58;;;;;;;15.97;5.57;;;;;;;14.44;99.06;101081.59;4843174;29;20457;-67
2023/06/10 01:26:33;;;;;;;19.20;8.20;;;;;;;14.34;99.87;101085.63;4844425;29;20485;-66
2023/06/10 01:29:08;;;;;;;12.67;6.43;;;;;;;14.38;99.58;101082.50;4846542;29;20423;-64
2023/06/10 01:31:45;;;;;;;11.00;5.00;;;;;;;14.32;100.00;101076.84;4846056;29;20425;-63
2023/06/10 01:34:18;;;;;;;12.43;6.07;;;;;;;14.28;100.00;101078.31;4837522;29;20468;-62
2023/06/10 01:36:50;;;;;;;10.30;5.63;;;;;;;14.23;100.00;101074.63;4851968;29;20452;-63
2023/06/10 01:39:22;;;;;;;9.63;5.37;;;;;;;14.22;100.00;101076.50;4844462;29;20794;-63
2023/06/10 01:41:51;;;;;;;8.90;5.97;;;;;;;14.18;100.00;101079.91;4842489;29;20507;-65
2023/06/10 01:44:21;;;;;;;13.53;7.93;;;;;;;14.13;100.00;101077.00;4859000;29;21163;-65
2023/06/10 01:46:50;;;;;;;9.13;5.40;;;;;;;14.20;100.00;101073.16;4861918;29;20477;-65
2023/06/10 01:49:19;;;;;;;11.83;5.30;;;;;;;14.14;100.00;101079.50;4868463;29;20424;-65
2023/06/10 01:51:49;;;;;;;9.47;5.50;;;;;;;14.42;100.00;101065.50;4846381;29;20441;-64
2023/06/10 01:54:18;;;;;;;11.97;6.30;;;;;;;14.42;98.87;101081.81;4846900;29;20473;-65
2023/06/10 01:56:47;;;;;;;16.10;6.80;;;;;;;14.26;100.00;101080.47;4846654;29;20465;-64
2023/06/10 01:59:16;;;;;;;7.03;5.87;;;;;;;14.45;99.95;101080.53;4845616;29;20544;-63
2023/06/10 02:01:45;;;;;;;6.73;5.50;;;;;;;14.29;99.92;101082.72;4845670;29;20522;-61
2023/06/10 02:04:14;;;;;;;8.93;6.50;;;;;;;14.17;100.00;101084.50;4847160;29;20449;-64
2023/06/10 02:06:43;;;;;;;6.20;5.30;;;;;;;14.17;100.00;101083.69;4845607;29;20815;-63
2023/06/10 02:09:13;;;;;;;7.87;5.40;;;;;;;14.13;100.00;101077.84;4842213;29;20423;-64
2023/06/10 02:11:42;;;;;;;9.00;5.30;;;;;;;14.10;100.00;101080.16;4849570;29;20422;-63
2023/06/10 02:14:12;;;;;;;9.40;6.97;;;;;;;13.99;100.00;101092.56;4845459;29;20448;-64
2023/06/10 02:16:41;;;;;;;15.77;5.90;;;;;;;13.98;100.00;101080.03;4855501;29;21001;-64
2023/06/10 02:19:11;;;;;;;8.93;5.60;;;;;;;14.01;100.00;101092.38;4852458;29;20452;-64
2023/06/10 02:21:40;;;;;;;10.20;5.83;;;;;;;13.98;100.00;101090.94;4850967;29;20507;-65
2023/06/10 02:24:11;;;;;;;7.60;6.10;;;;;;;13.90;100.00;101093.91;4846817;29;20422;-64
2023/06/10 02:26:41;;;;;;;9.80;6.60;;;;;;;13.83;100.00;101099.41;4844667;29;20465;-65
2023/06/10 02:29:10;;;;;;;6.73;4.67;;;;;;;13.88;100.00;101096.03;4845789;29;20516;-64
2023/06/10 02:31:40;;;;;;;11.90;5.60;;;;;;;14.17;100.00;101100.00;4845300;29;20475;-67
2023/06/10 02:34:10;;;;;;;9.17;5.80;;;;;;;14.00;100.00;101098.84;4842118;29;20461;-64
2023/06/10 02:36:39;;;;;;;9.80;6.27;;;;;;;14.03;100.00;101093.81;4845173;29;20485;-66
2023/06/10 02:39:09;;;;;;;9.23;6.40;;;;;;;13.98;100.00;101099.09;4844349;29;20531;-65
2023/06/10 02:41:40;;;;;;;7.67;5.30;;;;;;;14.22;100.00;101098.28;4846822;29;20465;-66
2023/06/10 02:44:09;;;;;;;9.00;5.73;;;;;;;14.22;100.00;101094.72;4845513;29;20449;-67
2023/06/10 02:46:39;;;;;;;11.70;5.60;;;;;;;14.04;100.00;101094.66;4843443;29;20458;-64
2023/06/10 02:49:08;;;;;;;11.60;5.97;;;;;;;13.98;100.00;101099.09;4853909;29;20439;-64
2023/06/10 02:51:37;;;;;;;8.20;6.10;;;;;;;13.86;100.00;101092.66;4858562;29;20457;-65
2023/06/10 02:54:06;;;;;;;9.83;6.67;;;;;;;13.86;100.00;101095.38;4847903;29;20485;-64
2023/06/10 02:56:36;;;;;;;12.93;5.27;;;;;;;13.87;100.00;101097.06;4844027;29;20484;-66
2023/06/10 02:59:09;;;;;;;12.23;6.67;;;;;;;13.98;100.00;101099.09;4842895;29;20858;-66
2023/06/10 03:01:38;;;;;;;11.63;7.10;;;;;;;13.97;100.00;101094.69;4865070;29;20455;-64
2023/06/10 03:04:12;;;;;;;8.30;5.50;;;;;;;13.97;100.00;101094.69;4852007;29;20432;-65
2023/06/10 03:06:45;;;;;;;6.27;5.27;;;;;;;14.03;100.00;101098.44;4841782;29;20571;-65
2023/06/10 03:09:20;;;;;;;16.67;6.90;;;;;;;14.07;100.00;101095.06;4856740;29;20454;-65
2023/06/10 03:11:52;;;;;;;8.30;6.00;;;;;;;14.13;100.00;101096.91;4857602;29;20467;-65
2023/06/10 03:14:24;;;;;;;10.27;5.53;;;;;;;14.54;99.88;101098.25;4843074;29;20441;-65
2023/06/10 03:16:54;;;;;;;10.10;5.60;;;;;;;14.16;100.00;101103.78;4840022;29;20985;-63
2023/06/10 03:19:25;;;;;;;14.73;6.90;;;;;;;14.17;100.00;101103.56;4841995;29;20420;-64
2023/06/10 03:22:10;;;;;;;12.83;7.20;;;;;;;14.30;100.00;101095.28;4857338;29;20559;-64
2023/06/10 03:24:57;;;;;;;9.70;7.07;;;;;;;14.39;100.00;101092.31;4841745;29;20453;-65
2023/06/10 03:27:26;;;;;;;10.30;6.30;;;;;;;14.28;100.00;101091.94;4854035;29;20474;-65
2023/06/10 03:30:03;;;;;;;8.40;5.70;;;;;;;14.23;100.00;101102.66;4853075;29;20452;-66
2023/06/10 03:32:32;;;;;;;8.57;6.00;;;;;;;14.19;100.00;101106.88;4874684;29;20448;-67
2023/06/10 03:35:01;;;;;;;8.80;7.10;;;;;;;14.43;99.03;101115.31;4836887;29;20497;-65
2023/06/10 03:37:32;;;;;;;8.63;5.80;;;;;;;14.31;100.00;101107.84;4850195;29;21067;-65
2023/06/10 03:40:01;;;;;;;12.67;7.00;;;;;;;14.26;100.00;101104.97;4842956;29;20514;-65
2023/06/10 03:42:32;;;;;;;9.10;6.97;;;;;;;14.34;100.00;101112.84;4841624;29;20454;-63
2023/06/10 03:45:04;;;;;;;9.70;7.50;;;;;;;14.41;99.65;101117.44;4849197;29;20449;-65
2023/06/10 03:47:36;;;;;;;9.00;7.07;;;;;;;14.61;98.74;101108.06;4841448;29;20467;-66
2023/06/10 03:50:10;;;;;;;8.90;6.17;;;;;;;14.90;95.37;101109.22;4868624;29;20444;-65
2023/06/10 03:52:41;;;;;;;8.30;6.13;;;;;;;14.84;95.68;101112.84;4861520;29;20524;-67
2023/06/10 03:55:13;;;;;;;18.00;6.43;;;;;;;14.70;96.10;101122.22;4844981;29;20501;-65
2023/06/10 03:57:45;;;;;;;8.70;7.30;;;;;;;14.48;98.04;101119.03;4849302;29;20431;-64
2023/06/10 04:00:17;;;;;;;10.40;6.93;;;;;;;14.49;98.02;101117.16;4861145;29;20479;-65
2023/06/10 04:02:47;;;;;;;9.73;7.67;;;;;;;14.50;98.17;101114.22;4850616;29;20475;-64
2023/06/10 04:05:24;;;;;;;9.77;5.60;;;;;;;14.60;97.73;101120.00;4860119;29;21306;-64
2023/06/10 04:07:54;;;;;;;9.30;5.90;;;;;;;14.66;97.19;101112.81;4842955;29;20419;-65
2023/06/10 04:10:23;;;;;;;11.93;6.90;;;;;;;14.84;96.33;101117.47;4842883;29;20456;-64
2023/06/10 04:12:52;;;;;;;13.60;6.57;;;;;;;15.06;94.37;101116.81;4848490;29;20551;-63
2023/06/10 04:15:22;;;;;;;13.43;6.83;;;;;;;14.87;94.93;101117.84;4846939;29;20413;-64
2023/06/10 04:17:52;;;;;;;15.83;7.50;;;;;;;14.89;95.08;101120.34;4856261;29;20513;-64
2023/06/10 04:20:24;;;;;;;11.30;7.00;;;;;;;15.03;94.00;101122.72;4842583;29;21014;-65
2023/06/10 04:22:53;;;;;;;8.50;6.53;;;;;;;15.04;94.22;101124.38;4844025;29;20509;-63
2023/06/10 04:25:24;;;;;;;18.27;7.50;;;;;;;14.98;94.19;101125.28;4843961;29;20869;-62
2023/06/10 04:27:53;;;;;;;9.20;6.43;;;;;;;15.26;93.23;101116.56;4850770;29;20562;-66
2023/06/10 04:30:23;;;;;;;8.40;7.60;;;;;;;15.39;92.00;101118.34;4847411;29;20950;-65
2023/06/10 04:32:53;;;;;;;15.57;8.20;;;;;;;15.36;91.54;101121.50;4842811;29;20432;-65
2023/06/10 04:35:22;;;;;;;18.83;8.27;;;;;;;15.22;92.55;101121.66;4847413;29;21006;-66
2023/06/10 04:37:50;;;;;;;10.47;7.20;;;;;;;15.27;92.29;101123.72;4855305;29;20425;-64
2023/06/10 04:40:19;;;;;;;9.50;5.63;;;;;;;15.40;91.90;101119.97;4840485;29;20441;-65
2023/06/10 04:42:49;;;;;;;9.07;6.10;;;;;;;15.38;91.34;101130.28;4840002;29;20448;-61
2023/06/10 04:45:18;;;;;;;12.33;7.60;;;;;;;15.20;92.50;101126.50;4840194;29;20518;-65
2023/06/10 04:47:49;;;;;;;10.73;7.30;;;;;;;15.42;91.46;101134.22;4846679;29;20926;-64
2023/06/10 04:50:18;;;;;;;12.47;7.40;;;;;;;15.47;91.26;101139.84;4847118;29;20418;-64
2023/06/10 04:52:47;;;;;;;11.80;7.73;;;;;;;15.58;90.21;101137.22;4841370;29;20472;-62
2023/06/10 04:55:16;;;;;;;8.87;6.67;;;;;;;15.51;90.51;101141.06;4843774;29;20483;-66
2023/06/10 04:57:45;;;;;;;11.50;7.40;;;;;;;15.52;90.46;101134.56;4847355;29;20484;-63
2023/06/10 05:00:15;;;;;;;7.70;6.83;;;;;;;15.55;90.68;101147.72;4841830;29;20429;-65
2023/06/10 05:02:44;;;;;;;8.10;6.67;;;;;;;16.03;88.23;101151.28;4841038;29;20507;-63
2023/06/10 05:05:15;;;;;;;12.30;8.63;;;;;;;16.13;86.96;101141.69;4847491;29;20515;-64
2023/06/10 05:07:44;;;;;;;8.40;6.37;;;;;;;16.05;86.91;101151.91;4839909;29;20770;-63
2023/06/10 05:10:13;;;;;;;13.10;7.30;;;;;;;16.29;85.59;101158.25;4835613;29;20451;-67
2023/06/10 05:12:42;;;;;;;7.67;6.17;;;;;;;16.56;83.86;101161.38;4841144;29;20503;-65
2023/06/10 05:15:11;;;;;;;10.77;6.37;;;;;;;16.31;85.04;101164.34;4840924;29;20537;-66
2023/06/10 05:17:40;;;;;;;11.40;6.90;;;;;;;16.35;84.83;101160.06;4843001;29;20531;-64
2023/06/10 05:20:10;;;;;;;7.10;6.33;;;;;;;16.56;84.29;101152.34;4845137;29;20436;-65
2023/06/10 05:22:41;;;;;;;9.10;7.30;;;;;;;16.80;82.46;101157.66;4845338;29;20927;-68
2023/06/10 05:25:10;;;;;;;11.23;6.40;;;;;;;16.95;81.45;101155.28;4844681;29;20418;-65
2023/06/10 05:27:41;;;;;;;10.10;7.00;;;;;;;18.04;75.94;101163.66;4845068;29;20415;-64
2023/06/10 05:30:12;;;;;;;12.80;8.40;;;;;;;18.46;74.11;101175.09;4841386;29;20800;-66
2023/06/10 05:33:04;;;;;;;8.80;7.03;;;;;;;18.79;71.89;101166.09;4858014;24;20425;31
2023/06/10 05:35:34;;;;;;;12.77;6.83;;;;;;;18.57;72.39;101171.50;4842160;29;20839;-68
2023/06/10 05:38:04;;;;;;;8.03;6.80;;;;;;;18.07;74.72;101174.09;4845827;29;20482;-68
2023/06/10 05:40:33;;;;;;;13.23;6.37;;;;;;;18.04;75.75;101174.59;4847584;29;20522;-69
2023/06/10 05:43:02;;;;;;;7.50;6.03;;;;;;;18.31;74.37;101166.59;4843019;29;20458;-68
2023/06/10 05:45:31;;;;;;;15.47;7.40;;;;;;;18.33;73.58;101168.03;4843268;29;20432;-68
2023/06/10 05:48:00;;;;;;;10.50;7.73;;;;;;;18.43;73.94;101167.38;4845990;29;20463;-69
2023/06/10 05:50:29;;;;;;;8.97;6.60;;;;;;;18.64;73.07;101164.75;4854950;29;20498;-69
2023/06/10 05:52:58;;;;;;;11.70;7.17;;;;;;;18.95;71.97;101166.09;4849359;29;20415;-69
2023/06/10 05:55:28;;;;;;;10.60;7.40;;;;;;;19.09;70.95;101167.41;4843926;29;20885;-69
2023/06/10 05:58:00;;;;;;;17.10;8.13;;;;;;;18.87;70.75;101162.94;4843143;29;20479;-69
2023/06/10 06:00:30;;;;;;;9.70;8.00;;;;;;;18.53;72.82;101171.16;4843972;29;20444;-69
2023/06/10 06:02:59;;;;;;;8.73;7.23;;;;;;;18.31;73.82;101163.88;4849484;29;20457;-68
2023/06/10 06:05:28;;;;;;;11.90;8.73;;;;;;;18.31;74.00;101170.19;4843585;29;20465;-69
2023/06/10 06:07:57;;;;;;;12.23;8.60;;;;;;;18.53;73.14;101171.16;4846528;29;20408;-69
2023/06/10 06:10:27;;;;;;;10.33;8.10;;;;;;;18.46;73.45;101167.72;4843071;29;20471;-68
2023/06/10 06:12:56;;;;;;;9.77;6.40;;;;;;;18.39;73.29;101174.44;4842929;29;20863;-68
2023/06/10 06:15:25;;;;;;;12.33;7.93;;;;;;;18.35;73.51;101176.03;4844073;29;20468;-68
2023/06/10 06:17:55;;;;;;;10.97;7.90;;;;;;;18.35;73.76;101170.53;4842862;29;20485;-68
2023/06/10 06:20:24;;;;;;;10.93;8.13;;;;;;;18.55;72.66;101188.19;4838400;29;20935;-68
2023/06/10 06:22:53;;;;;;;15.13;8.33;;;;;;;18.78;72.32;101189.13;4845526;29;20426;-68
2023/06/10 06:25:23;;;;;;;10.00;7.97;;;;;;;18.83;71.10;101194.69;4844215;29;20446;-68
2023/06/10 06:27:53;;;;;;;11.87;8.63;;;;;;;18.81;71.08;101192.19;4842709;29;20421;-68
2023/06/10 06:30:22;;;;;;;10.03;7.43;;;;;;;18.94;70.78;101191.84;4842112;29;20929;-68
2023/06/10 06:32:51;;;;;;;12.00;7.57;;;;;;;19.14;70.26;101194.06;4845816;29;20427;-69
2023/06/10 06:35:20;;;;;;;12.70;8.20;;;;;;;19.22;69.44;101204.59;4842817;29;20449;-69
2023/06/10 06:37:49;;;;;;;9.30;7.63;;;;;;;19.36;69.07;101205.94;4843576;29;20465;-69
2023/06/10 06:40:23;;;;;;;8.40;7.13;;;;;;;19.48;68.28;101197.59;4836123;29;20955;-69
2023/06/10 06:42:54;;;;;;;9.33;7.20;;;;;;;19.68;67.86;101203.38;4841009;29;20441;-68
2023/06/10 06:45:30;;;;;;;11.60;8.27;;;;;;;19.48;67.65;101205.84;4844048;29;20523;-69
2023/06/10 06:47:59;;;;;;;15.53;8.33;;;;;;;19.40;68.51;101201.59;4846157;29;20419;-68
2023/06/10 06:50:28;;;;;;;9.70;8.00;;;;;;;19.45;68.13;101200.88;4846601;29;20810;-69
2023/06/10 06:52:57;;;;;;;12.13;9.07;;;;;;;19.73;67.56;101216.34;4844665;29;20443;-69
2023/06/10 06:55:26;;;;;;;8.67;7.20;;;;;;;19.81;66.96;101215.88;4844141;29;20487;-68
2023/06/10 06:57:57;;;;;;;10.43;7.60;;;;;;;19.93;66.40;101219.34;4837180;29;20498;-68
2023/06/10 07:00:26;;;;;;;11.87;7.73;;;;;;;20.08;66.32;101219.53;4843456;29;20498;-68
2023/06/10 07:02:55;;;;;;;11.83;8.60;;;;;;;20.10;65.92;101214.59;4841886;29;20449;-68
2023/06/10 07:05:25;;;;;;;9.23;8.37;;;;;;;20.16;65.72;101215.47;4843878;29;20797;-68
2023/06/10 07:07:55;;;;;;;8.60;7.43;;;;;;;20.28;65.67;101214.22;4844426;29;20996;-68
2023/06/10 07:10:24;;;;;;;9.90;8.90;;;;;;;20.61;64.33;101215.16;4843891;29;20408;-68
2023/06/10 07:12:53;;;;;;;8.40;7.60;;;;;;;21.04;62.89;101223.22;4843062;29;20421;-69
2023/06/10 07:15:24;;;;;;;12.80;7.60;;;;;;;21.34;61.24;101228.16;4851310;29;20417;-68
2023/06/10 07:17:55;;;;;;;9.83;8.50;;;;;;;21.40;61.36;101217.97;4841446;29;20494;-68
2023/06/10 07:20:24;;;;;;;8.03;7.23;;;;;;;21.78;59.45;101220.44;4842994;29;20434;-68
2023/06/10 07:22:53;;;;;;;12.17;7.77;;;;;;;21.60;60.67;101220.84;4841224;29;20444;-68
2023/06/10 07:25:22;;;;;;;10.93;9.83;;;;;;;21.60;61.07;101224.44;4842412;29;20444;-69
2023/06/10 07:27:51;;;;;;;14.37;7.90;;;;;;;21.96;59.46;101231.00;4843365;29;20412;-67
2023/06/10 07:30:20;;;;;;;15.13;7.57;;;;;;;22.32;58.94;101239.34;4844440;29;20412;-67
2023/06/10 07:32:51;;;;;;;9.17;7.87;;;;;;;22.56;58.08;101234.19;4827845;29;20413;-69
2023/06/10 07:35:20;;;;;;;9.43;8.63;;;;;;;22.54;57.81;101237.22;4843581;29;20478;-68
2023/06/10 07:37:49;;;;;;;12.20;7.60;;;;;;;22.39;58.64;101235.25;4842173;29;20443;-68
2023/06/10 07:40:18;;;;;;;11.37;8.90;;;;;;;22.84;57.91;101237.28;4841381;29;20433;-68
2023/06/10 07:42:47;;;;;;;12.73;9.17;;;;;;;23.29;56.47;101241.09;4840236;29;20457;-69
2023/06/10 07:45:17;;;;;;;11.23;8.60;;;;;;;23.52;54.76;101240.56;4838900;29;20879;-69
2023/06/10 07:47:46;;;;;;;13.23;9.20;;;;;;;23.07;55.76;101246.13;4841317;29;20955;-65
2023/06/10 07:50:16;;;;;;;12.10;9.43;;;;;;;23.31;55.87;101247.19;4834463;29;20520;-66
2023/06/10 07:52:45;;;;;;;11.33;8.00;;;;;;;23.65;54.59;101239.97;4840771;29;20422;-67
2023/06/10 07:55:14;;;;;;;10.40;9.33;;;;;;;23.26;55.15;101245.28;4836959;29;20489;-66
2023/06/10 07:57:43;;;;;;;13.43;8.33;;;;;;;23.12;56.04;101240.59;4842782;29;20469;-68
2023/06/10 08:00:13;;;;;;;9.93;9.00;;;;;;;22.79;56.83;101239.22;4839264;29;20440;-68
2023/06/10 08:02:42;;;;;;;10.07;8.93;;;;;;;22.81;57.22;101248.88;4841705;29;20473;-68
2023/06/10 08:05:11;;;;;;;10.90;9.83;;;;;;;23.03;56.41;101239.50;4845194;29;20528;-67
2023/06/10 08:07:42;;;;;;;12.30;9.30;;;;;;;22.70;57.23;101247.22;4842146;29;20820;-69
2023/06/10 08:10:12;;;;;;;13.73;9.40;;;;;;;22.80;57.27;101241.69;4839856;29;20870;-68
2023/06/10 08:12:41;;;;;;;10.93;9.50;;;;;;;22.83;56.20;101246.66;4846839;29;20981;-68
2023/06/10 08:15:10;;;;;;;10.67;9.57;;;;;;;22.66;57.25;101245.22;4846184;29;20449;-67
2023/06/10 08:17:40;;;;;;;9.97;8.23;;;;;;;22.92;56.30;101245.00;4854695;29;20497;-69
2023/06/10 08:20:09;;;;;;;10.37;9.10;;;;;;;22.92;56.49;101256.06;4841559;29;20473;-67
2023/06/10 08:22:39;;;;;;;9.97;8.50;;;;;;;23.43;55.51;101260.72;4840715;29;20416;-67
2023/06/10 08:25:11;;;;;;;9.27;8.37;;;;;;;23.52;55.44;101259.06;4840345;29;20405;-67
2023/06/10 08:27:40;;;;;;;10.50;9.03;;;;;;;23.73;54.50;101258.72;4841622;29;20445;-69
2023/06/10 08:30:10;;;;;;;13.23;9.43;;;;;;;23.74;54.47;101268.69;4846414;29;20513;-69
2023/06/10 08:32:39;;;;;;;10.47;9.27;;;;;;;23.57;54.75;101276.47;4839810;29;20943;-67
2023/06/10 08:35:09;;;;;;;9.80;8.60;;;;;;;23.67;54.48;101270.91;4840430;29;20452;-68
2023/06/10 08:37:40;;;;;;;13.17;10.53;;;;;;;23.55;55.43;101269.56;4842216;29;20853;-67
2023/06/10 08:40:11;;;;;;;12.53;9.30;;;;;;;23.62;54.59;101270.94;4844199;29;20406;-67
2023/06/10 08:42:46;;;;;;;12.87;10.20;;;;;;;23.47;54.80;101268.19;4837426;29;20857;-68
2023/06/10 08:45:22;;;;;;;11.57;8.90;;;;;;;23.22;55.86;101277.31;4836914;29;20960;-68
2023/06/10 08:47:53;;;;;;;9.67;8.73;;;;;;;22.98;56.22;101275.38;4842414;29;20966;-68
2023/06/10 08:50:23;;;;;;;9.23;8.33;;;;;;;22.98;55.84;101280.88;4843157;29;20471;-67
2023/06/10 08:52:57;;;;;;;10.83;8.97;;;;;;;22.68;57.03;101281.66;4843277;29;20472;-68
2023/06/10 08:55:31;;;;;;;9.57;8.67;;;;;;;22.49;57.32;101278.56;4844510;29;20439;-68
2023/06/10 08:58:01;;;;;;;10.37;8.87;;;;;;;22.30;58.57;101286.53;4851202;29;20469;-68
2023/06/10 09:00:33;;;;;;;10.63;9.43;;;;;;;22.52;58.05;101275.25;4838213;29;20493;-68
2023/06/10 09:03:03;;;;;;;10.10;7.90;;;;;;;22.50;57.69;101280.25;4843391;29;20448;-69
2023/06/10 09:05:36;;;;;;;10.80;9.20;;;;;;;22.54;57.94;101276.66;4846515;29;20472;-68
2023/06/10 09:08:07;;;;;;;13.27;8.73;;;;;;;22.37;58.55;101273.28;4839448;29;20940;-68
2023/06/10 09:10:37;;;;;;;12.47;9.03;;;;;;;22.08;59.24;101277.59;4838489;29;20426;-69
2023/06/10 09:13:06;;;;;;;18.53;9.17;;;;;;;22.10;59.87;101278.16;4844581;29;20451;-68
2023/06/10 09:15:35;;;;;;;14.30;8.10;;;;;;;21.93;60.06;101280.28;4845697;29;20830;-68
2023/06/10 09:18:04;;;;;;;12.60;10.07;;;;;;;21.94;60.16;101277.25;4844240;29;20427;-68
2023/06/10 09:20:34;;;;;;;11.00;8.50;;;;;;;21.87;60.13;101286.84;4845589;29;20520;-68
2023/06/10 09:23:03;;;;;;;12.40;9.60;;;;;;;21.47;63.30;101292.94;4848511;29;20882;-67
2023/06/10 09:25:40;;;;;;;12.03;8.90;;;;;;;21.28;66.92;101283.44;4845018;29;20467;-69
2023/06/10 09:28:16;;;;;;;20.03;10.03;;;;;;;20.75;70.76;101290.66;4842856;29;20437;-69
2023/06/10 09:30:45;;;;;;;21.67;10.50;;;;;;;20.57;73.23;101285.53;4844413;29;20441;-68
2023/06/10 09:33:16;;;;;;;13.10;10.43;;;;;;;20.50;73.67;101282.13;4845900;29;20488;-69
2023/06/10 09:35:49;;;;;;;14.10;9.17;;;;;;;20.44;75.28;101283.16;4844933;29;20435;-69
2023/06/10 09:38:22;;;;;;;16.73;10.30;;;;;;;20.49;77.71;101292.28;4842152;29;20445;-69
2023/06/10 09:40:54;;;;;;;11.60;9.53;;;;;;;20.18;78.36;101293.84;4842856;29;20447;-68
2023/06/10 09:43:23;;;;;;;11.57;10.20;;;;;;;20.18;78.63;101296.59;4844280;29;20417;-69
2023/06/10 09:45:53;;;;;;;20.70;12.30;;;;;;;20.17;80.77;101289.44;4851007;29;20821;-69
2023/06/10 09:48:23;;;;;;;12.97;10.23;;;;;;;20.39;80.63;101287.50;4847446;29;20411;-69
2023/06/10 09:50:52;;;;;;;14.33;11.90;;;;;;;20.49;79.20;101285.97;4852017;29;20800;-68
2023/06/10 09:53:22;;;;;;;12.73;11.43;;;;;;;20.62;78.17;101280.06;4846849;29;20413;-71
2023/06/10 09:55:54;;;;;;;13.10;11.40;;;;;;;20.56;76.19;101278.34;4843800;29;20494;-70
2023/06/10 09:58:36;;;;;;;11.97;10.63;;;;;;;20.54;77.59;101281.34;4838489;29;20436;-69
2023/06/10 10:01:10;;;;;;;16.27;12.00;;;;;;;20.57;78.66;101280.84;4843372;29;20408;-68
2023/06/10 10:03:50;;;;;;;14.90;11.20;;;;;;;20.53;79.02;101276.09;4843116;29;20451;-69
2023/06/10 10:06:22;;;;;;;12.10;11.00;;;;;;;20.57;80.36;101275.34;4837623;29;21014;-70
2023/06/10 10:08:52;;;;;;;14.50;11.73;;;;;;;20.69;81.94;101278.75;4841487;29;20416;-69
2023/06/10 10:11:25;;;;;;;16.03;13.07;;;;;;;20.78;81.28;101279.13;4840341;29;20420;-70
2023/06/10 10:13:55;;;;;;;12.20;11.00;;;;;;;20.91;78.90;101273.22;4843525;29;20464;-68
2023/06/10 10:16:30;;;;;;;24.73;12.20;;;;;;;21.06;78.26;101286.25;4841348;29;20961;-69
2023/06/10 10:19:08;;;;;;;14.00;12.37;;;;;;;21.11;78.05;101289.03;4836149;29;20473;-69
2023/06/10 10:21:45;;;;;;;14.57;11.20;;;;;;;21.17;79.22;101291.59;4842768;29;20433;-69
2023/06/10 10:24:19;;;;;;;14.03;12.67;;;;;;;21.21;79.62;101289.97;4841505;29;20435;-68
2023/06/10 10:26:51;;;;;;;14.37;12.87;;;;;;;21.34;78.36;101298.91;4840279;29;20516;-68
2023/06/10 10:29:25;;;;;;;14.57;10.33;;;;;;;21.29;78.63;101294.19;4837121;29;20404;-68
2023/06/10 10:31:56;;;;;;;12.90;11.50;;;;;;;21.22;80.18;101288.91;4847161;29;20445;-68
2023/06/10 10:34:31;;;;;;;14.80;13.27;;;;;;;21.20;80.80;101293.03;4842511;29;20456;-69
2023/06/10 10:37:00;;;;;;;20.57;11.73;;;;;;;21.19;80.73;101294.09;4842137;29;20438;-69
2023/06/10 10:39:30;;;;;;;13.93;11.93;;;;;;;21.12;81.10;101275.03;4841292;29;20534;-68
2023/06/10 10:42:03;;;;;;;10.30;9.37;;;;;;;21.13;76.58;101275.84;4844199;29;20856;-68
2023/06/10 10:44:33;;;;;;;11.87;10.77;;;;;;;21.17;74.27;101280.59;4842680;29;20418;-68
2023/06/10 10:47:08;;;;;;;10.60;9.63;;;;;;;21.25;72.03;101268.28;4844080;29;20892;-69
2023/06/10 10:49:39;;;;;;;10.70;9.63;;;;;;;21.34;68.10;101271.38;4842334;29;20491;-69
2023/06/10 10:52:13;;;;;;;8.83;8.17;;;;;;;21.43;65.75;101272.53;4843176;29;20419;-68
2023/06/10 10:54:47;;;;;;;9.13;6.70;;;;;;;21.54;62.65;101266.00;4838224;29;20920;-70
2023/06/10 10:57:19;;;;;;;7.90;7.20;;;;;;;21.56;64.29;101255.53;4843992;29;20550;-71
2023/06/10 10:59:56;;;;;;;8.57;7.17;;;;;;;21.72;64.11;101257.31;4833127;29;20529;-69
2023/06/10 11:02:38;;;;;;;8.43;7.63;;;;;;;21.76;63.88;101250.16;4838876;29;20410;-67
2023/06/10 11:05:10;;;;;;;8.90;7.53;;;;;;;21.59;65.38;101241.25;4838841;29;20511;-68
2023/06/10 11:07:40;;;;;;;8.23;7.50;;;;;;;21.56;64.41;101233.50;4838146;29;20444;-68
2023/06/10 11:10:10;;;;;;;8.87;8.00;;;;;;;21.87;64.55;101231.75;4840910;29;20822;-70
2023/06/10 11:12:52;;;;;;;8.83;8.00;;;;;;;22.39;62.84;101235.25;4841226;29;20519;-68
2023/06/10 11:15:23;;;;;;;10.50;8.50;;;;;;;22.53;62.32;101230.03;4843712;29;20856;-69
2023/06/10 11:18:16;;;;;;;8.57;7.77;;;;;;;22.75;60.46;101240.88;4839717;29;20441;-68
2023/06/10 11:20:57;;;;;;;10.90;8.57;;;;;;;22.81;63.97;101228.72;4838923;29;20534;-68
2023/06/10 11:23:44;;;;;;;14.80;13.00;;;;;;;23.14;62.67;101238.38;4839539;29;20459;-69
2023/06/10 11:26:26;;;;;;;13.23;10.97;;;;;;;23.16;64.11;101233.41;4841199;29;20454;-69
2023/06/10 11:29:11;;;;;;;9.77;8.87;;;;;;;23.27;60.71;101238.66;4837924;29;20451;-68
2023/06/10 11:31:50;;;;;;;10.93;9.90;;;;;;;23.17;61.32;101238.66;4840730;29;20457;-69
2023/06/10 11:34:29;;;;;;;8.87;8.07;;;;;;;23.11;61.30;101239.75;4858949;24;20602;-67